Time;durP1;ratioP1;P1;durP2;ratioP2;P2;SDS_P1;SDS_P2;PMS_P1;PMS_P2;Temp;Humidity;BMP_temperature;BMP_pressure;BME280_temperature;BME280_humidity;BME280_pressure;Samples;Min_cycle;Max_cycle;Signal;HPM_P1;HPM_P2
2024/03/08 00:00:51;;;;;;;13.30;4.97;;;6.20;99.90;;;;;;5144829;23;20155;-93
2024/03/08 00:02:52;;;;;;;11.00;5.20;;;6.20;99.90;;;;;;5169835;23;20189;-94
2024/03/08 00:04:53;;;;;;;12.00;5.57;;;6.00;99.90;;;;;;5144936;23;20156;-92
2024/03/08 00:06:53;;;;;;;12.20;5.70;;;6.00;99.90;;;;;;5144638;23;20183;-94
2024/03/08 00:08:56;;;;;;;17.27;5.23;;;6.10;99.90;;;;;;5144143;23;20550;-95
2024/03/08 00:10:56;;;;;;;15.17;5.70;;;6.00;99.90;;;;;;5144669;23;20159;-95
2024/03/08 00:12:57;;;;;;;8.40;4.17;;;6.00;99.90;;;;;;5144660;23;20198;-93
2024/03/08 00:14:58;;;;;;;15.00;4.83;;;5.80;99.90;;;;;;5144810;23;20160;-94
2024/03/08 00:16:59;;;;;;;12.87;4.90;;;5.70;99.90;;;;;;5146028;23;20174;-93
2024/03/08 00:19:00;;;;;;;12.33;4.37;;;5.70;99.90;;;;;;5144851;23;20270;-93
2024/03/08 00:21:02;;;;;;;10.13;4.17;;;5.90;99.90;;;;;;5145028;23;20144;-93
2024/03/08 00:23:03;;;;;;;16.47;5.20;;;5.90;99.90;;;;;;5144425;23;20586;-93
2024/03/08 00:25:08;;;;;;;14.53;4.90;;;5.60;99.90;;;;;;5170609;23;20208;-94
2024/03/08 00:27:11;;;;;;;14.00;5.67;;;5.80;99.90;;;;;;5170607;23;20191;-93
2024/03/08 00:29:13;;;;;;;10.33;4.03;;;5.70;99.90;;;;;;5170040;23;20189;-92
2024/03/08 00:31:16;;;;;;;15.20;4.93;;;5.70;99.90;;;;;;5145626;23;20152;-94
2024/03/08 00:33:17;;;;;;;11.97;4.97;;;5.60;99.90;;;;;;5170266;23;20143;-93
2024/03/08 00:35:18;;;;;;;12.40;4.80;;;5.50;99.90;;;;;;5145086;23;20155;-94
2024/03/08 00:37:20;;;;;;;14.43;4.73;;;5.30;99.90;;;;;;5145012;23;20151;-93
2024/03/08 00:39:21;;;;;;;13.27;5.90;;;5.40;99.90;;;;;;5144812;23;20195;-93
2024/03/08 00:41:22;;;;;;;13.87;4.70;;;5.30;99.90;;;;;;5145325;23;20509;-92
2024/03/08 00:43:23;;;;;;;13.80;5.10;;;5.20;99.90;;;;;;5146158;23;20246;-94
2024/03/08 00:45:26;;;;;;;13.20;4.37;;;5.20;99.90;;;;;;5196083;22;20218;-93
2024/03/08 00:47:27;;;;;;;13.43;4.37;;;5.20;99.90;;;;;;5170001;23;20151;-94
2024/03/08 00:49:28;;;;;;;16.53;5.50;;;5.40;99.90;;;;;;5144924;23;20210;-93
2024/03/08 00:51:29;;;;;;;12.13;4.23;;;5.30;99.90;;;;;;5145793;23;20151;-93
2024/03/08 00:53:30;;;;;;;11.93;5.17;;;5.30;99.90;;;;;;5170841;23;20151;-93
2024/03/08 00:55:31;;;;;;;12.30;4.70;;;5.20;99.90;;;;;;5145667;23;20186;-92
2024/03/08 00:57:32;;;;;;;13.17;5.27;;;5.20;99.90;;;;;;5144554;23;20154;-93
2024/03/08 00:59:33;;;;;;;13.67;4.93;;;5.20;99.90;;;;;;5145563;23;20191;-93
2024/03/08 01:01:34;;;;;;;12.77;4.80;;;5.30;99.90;;;;;;5145650;23;20621;-92
2024/03/08 01:03:36;;;;;;;13.10;4.63;;;5.10;99.90;;;;;;5145894;23;20155;-93
2024/03/08 01:05:37;;;;;;;13.17;5.37;;;5.00;99.90;;;;;;5170708;23;20143;-94
2024/03/08 01:07:38;;;;;;;14.40;5.60;;;5.00;99.90;;;;;;5145810;23;20174;-94
2024/03/08 01:09:39;;;;;;;13.60;4.47;;;5.10;99.90;;;;;;5145522;23;20163;-94
2024/03/08 01:11:40;;;;;;;11.83;4.73;;;5.00;99.90;;;;;;5170752;23;20538;-92
2024/03/08 01:13:41;;;;;;;12.10;3.90;;;5.00;99.90;;;;;;5146221;23;20215;-93
2024/03/08 01:15:41;;;;;;;8.37;3.27;;;4.90;99.90;;;;;;5145786;23;20154;-92
2024/03/08 01:17:44;;;;;;;6.63;3.47;;;4.80;99.90;;;;;;5171534;23;20597;-93
2024/03/08 01:19:44;;;;;;;17.00;5.97;;;4.80;99.90;;;;;;5145325;23;20201;-93
2024/03/08 01:21:46;;;;;;;10.67;3.73;;;4.70;99.90;;;;;;5170666;23;20143;-93
2024/03/08 01:23:47;;;;;;;15.33;3.43;;;4.80;99.90;;;;;;5146114;23;20451;-93
2024/03/08 01:25:52;;;;;;;12.50;3.93;;;4.80;99.90;;;;;;5170917;22;20201;-93
2024/03/08 01:27:54;;;;;;;9.40;4.57;;;4.80;99.90;;;;;;5145606;23;20174;-94
2024/03/08 01:29:55;;;;;;;12.70;4.60;;;4.80;99.90;;;;;;5170746;23;20617;-93
2024/03/08 01:31:56;;;;;;;13.93;5.60;;;4.80;99.90;;;;;;5145490;23;20159;-96
2024/03/08 01:33:58;;;;;;;11.97;4.50;;;4.70;99.90;;;;;;5145508;23;20148;-93
2024/03/08 01:35:59;;;;;;;9.53;4.20;;;4.70;99.90;;;;;;5145425;23;20162;-93
2024/03/08 01:37:59;;;;;;;10.10;4.10;;;4.70;99.90;;;;;;5195797;22;20154;-93
2024/03/08 01:40:00;;;;;;;13.60;5.13;;;4.70;99.90;;;;;;5170122;23;20195;-93
2024/03/08 01:42:01;;;;;;;11.47;4.73;;;4.70;99.90;;;;;;5145763;23;20159;-93
2024/03/08 01:44:03;;;;;;;14.57;4.70;;;4.70;99.90;;;;;;5171907;23;20146;-92
2024/03/08 01:46:05;;;;;;;12.83;4.63;;;4.70;99.90;;;;;;5146285;23;20206;-94
2024/03/08 01:48:06;;;;;;;13.30;4.20;;;4.60;99.90;;;;;;5154793;23;20152;-92
2024/03/08 01:50:08;;;;;;;15.80;4.73;;;4.60;99.90;;;;;;5160178;23;20182;-93
2024/03/08 01:52:09;;;;;;;8.47;3.90;;;4.50;99.90;;;;;;5170172;23;20151;-92
2024/03/08 01:54:10;;;;;;;14.37;4.53;;;4.50;99.90;;;;;;5170436;23;20147;-95
2024/03/08 01:56:13;;;;;;;12.67;5.30;;;4.50;99.90;;;;;;5170602;23;20178;-93
2024/03/08 01:58:15;;;;;;;15.47;5.30;;;4.40;99.90;;;;;;5145399;23;20282;-92
2024/03/08 02:00:16;;;;;;;14.80;5.17;;;4.50;99.90;;;;;;5169777;23;20187;-93
2024/03/08 02:02:19;;;;;;;13.67;4.57;;;4.50;99.90;;;;;;5145530;23;20158;-93
2024/03/08 02:04:21;;;;;;;16.17;5.07;;;4.50;99.90;;;;;;5145531;23;20167;-93
2024/03/08 02:06:22;;;;;;;9.90;4.97;;;4.40;99.90;;;;;;5145958;23;20155;-94
2024/03/08 02:08:22;;;;;;;13.40;5.23;;;4.50;99.90;;;;;;5145012;23;20201;-94
2024/03/08 02:10:23;;;;;;;12.83;4.47;;;4.50;99.90;;;;;;5145165;23;20614;-94
2024/03/08 02:12:24;;;;;;;12.67;5.47;;;4.50;99.90;;;;;;5145670;23;20144;-94
2024/03/08 02:14:25;;;;;;;18.47;6.03;;;4.60;99.90;;;;;;5145432;23;20175;-94
2024/03/08 02:16:26;;;;;;;10.13;4.40;;;4.70;99.90;;;;;;5170297;23;20206;-92
2024/03/08 02:18:30;;;;;;;13.93;4.77;;;4.60;99.90;;;;;;5170492;23;20212;-93
2024/03/08 02:20:31;;;;;;;7.40;3.53;;;4.50;99.90;;;;;;5145353;23;20266;-93
2024/03/08 02:22:32;;;;;;;13.03;4.83;;;4.60;99.90;;;;;;5144659;23;20155;-93
2024/03/08 02:24:33;;;;;;;13.77;6.07;;;4.60;99.90;;;;;;5169271;23;20159;-92
2024/03/08 02:26:34;;;;;;;12.77;4.93;;;4.50;99.90;;;;;;5145162;23;20148;-93
2024/03/08 02:28:36;;;;;;;11.57;4.97;;;4.50;99.90;;;;;;5170539;22;20498;-93
2024/03/08 02:30:37;;;;;;;16.83;6.07;;;4.50;99.90;;;;;;5144971;23;20154;-94
2024/03/08 02:32:38;;;;;;;14.70;6.77;;;4.50;99.90;;;;;;5169898;22;20154;-92
2024/03/08 02:34:39;;;;;;;15.57;6.30;;;4.40;99.90;;;;;;5144995;23;20234;-92
2024/03/08 02:36:40;;;;;;;13.80;5.43;;;4.40;99.90;;;;;;5170057;23;20161;-93
2024/03/08 02:38:42;;;;;;;13.03;5.77;;;4.40;99.90;;;;;;5144732;23;20144;-93
2024/03/08 02:40:44;;;;;;;15.90;6.13;;;4.60;99.90;;;;;;5170332;23;20544;-93
2024/03/08 02:42:45;;;;;;;12.23;5.97;;;4.50;99.90;;;;;;5145158;23;20151;-94
2024/03/08 02:44:46;;;;;;;14.70;4.53;;;4.50;99.90;;;;;;5144579;23;20490;-93
2024/03/08 02:46:47;;;;;;;9.97;4.47;;;4.30;99.90;;;;;;5169446;22;20222;-92
2024/03/08 02:48:48;;;;;;;16.43;5.60;;;4.40;99.90;;;;;;5145972;23;20172;-93
2024/03/08 02:50:50;;;;;;;12.83;5.20;;;4.30;99.90;;;;;;5170191;23;20155;-93
2024/03/08 02:52:51;;;;;;;11.23;5.77;;;4.40;99.90;;;;;;5171789;23;20226;-93
2024/03/08 02:54:53;;;;;;;9.57;5.17;;;4.30;99.90;;;;;;5171036;23;20176;-92
2024/03/08 02:56:54;;;;;;;10.93;4.40;;;4.30;99.90;;;;;;5170100;23;20254;-93
2024/03/08 02:58:55;;;;;;;13.73;5.80;;;4.20;99.90;;;;;;5171279;23;20175;-92
2024/03/08 03:00:57;;;;;;;10.67;5.00;;;4.30;99.90;;;;;;5145376;23;20215;-93
2024/03/08 03:02:58;;;;;;;11.50;6.07;;;4.30;99.90;;;;;;5171993;23;20143;-94
2024/03/08 03:05:02;;;;;;;20.23;6.97;;;4.30;99.90;;;;;;5145774;23;20166;-94
2024/03/08 03:07:04;;;;;;;12.67;5.50;;;4.30;99.90;;;;;;5170850;23;20147;-93
2024/03/08 03:09:06;;;;;;;14.10;5.90;;;4.20;99.90;;;;;;5170393;22;20261;-93
2024/03/08 03:11:07;;;;;;;10.97;4.43;;;4.20;99.90;;;;;;5146670;23;20587;-93
2024/03/08 03:13:08;;;;;;;14.83;5.83;;;4.20;99.90;;;;;;5171974;23;20474;-92
2024/03/08 03:15:10;;;;;;;9.40;4.87;;;4.20;99.90;;;;;;5122082;23;20178;-94
2024/03/08 03:17:11;;;;;;;16.03;5.97;;;4.30;99.90;;;;;;5147466;23;20151;-93
2024/03/08 03:19:12;;;;;;;12.27;5.37;;;4.40;99.90;;;;;;5145185;23;20270;-94
2024/03/08 03:21:14;;;;;;;12.10;5.80;;;4.20;99.90;;;;;;5173183;23;20162;-92
2024/03/08 03:23:20;;;;;;;14.07;5.97;;;4.10;99.90;;;;;;5173168;23;20151;-93
2024/03/08 03:25:28;;;;;;;13.33;5.73;;;4.00;99.90;;;;;;5197085;22;20189;-93
2024/03/08 03:27:30;;;;;;;16.43;5.07;;;4.10;99.90;;;;;;5171189;23;20154;-93
2024/03/08 03:29:32;;;;;;;18.47;6.83;;;4.20;99.90;;;;;;5173305;23;20166;-93
2024/03/08 03:31:33;;;;;;;6.67;4.03;;;4.20;99.90;;;;;;5146556;23;20155;-93
2024/03/08 03:33:36;;;;;;;10.83;5.27;;;4.00;99.90;;;;;;5171964;23;20146;-93
2024/03/08 03:35:37;;;;;;;10.83;5.37;;;4.00;99.90;;;;;;5146663;23;20144;-93
2024/03/08 03:37:39;;;;;;;10.37;5.97;;;4.00;99.90;;;;;;5145974;23;20159;-93
2024/03/08 03:39:52;;;;;;;14.70;5.80;;;4.10;99.90;;;;;;5146929;23;20565;-93
2024/03/08 03:41:53;;;;;;;15.03;6.63;;;4.00;99.90;;;;;;5147423;23;20493;-93
2024/03/08 03:43:54;;;;;;;15.40;5.87;;;4.00;99.90;;;;;;5146755;23;20148;-93
2024/03/08 03:45:55;;;;;;;13.33;5.80;;;4.00;99.90;;;;;;5172673;23;20143;-93
2024/03/08 03:47:56;;;;;;;14.10;5.60;;;3.90;99.90;;;;;;5146993;23;20151;-95
2024/03/08 03:50:01;;;;;;;15.77;6.37;;;4.00;99.90;;;;;;5146946;23;20172;-92
2024/03/08 03:52:05;;;;;;;14.10;5.43;;;4.00;99.90;;;;;;5147018;23;20144;-92
2024/03/08 03:54:07;;;;;;;9.10;4.17;;;4.00;99.90;;;;;;5147245;23;20155;-93
2024/03/08 03:56:09;;;;;;;13.30;5.50;;;3.90;99.90;;;;;;5190853;22;20151;-93
2024/03/08 03:58:10;;;;;;;12.53;5.30;;;3.90;99.90;;;;;;5175276;23;20159;-91
2024/03/08 04:00:11;;;;;;;15.53;6.17;;;3.90;99.90;;;;;;5172114;23;20187;-93
2024/03/08 04:02:15;;;;;;;15.23;6.57;;;3.80;99.90;;;;;;5146740;23;20178;-93
2024/03/08 04:04:17;;;;;;;18.93;6.73;;;3.80;99.90;;;;;;5147244;23;20151;-92
2024/03/08 04:06:18;;;;;;;19.33;7.30;;;3.80;99.90;;;;;;5145978;23;20606;-93
2024/03/08 04:08:19;;;;;;;13.33;6.33;;;3.70;99.90;;;;;;5147605;23;20190;-93
2024/03/08 04:10:20;;;;;;;12.37;6.40;;;3.80;99.90;;;;;;5147645;23;20168;-94
2024/03/08 04:12:21;;;;;;;16.63;6.63;;;3.90;99.90;;;;;;5147213;23;20151;-92
2024/03/08 04:14:23;;;;;;;13.60;6.70;;;3.90;99.90;;;;;;5146401;23;20152;-92
2024/03/08 04:16:25;;;;;;;17.97;7.20;;;3.80;99.90;;;;;;5171509;23;20155;-92
2024/03/08 04:18:26;;;;;;;12.20;5.50;;;3.80;99.90;;;;;;5172412;23;20229;-93
2024/03/08 04:20:27;;;;;;;13.30;6.20;;;3.80;99.90;;;;;;5146317;23;20613;-93
2024/03/08 04:22:28;;;;;;;12.90;5.57;;;3.70;99.90;;;;;;5146941;23;20163;-93
2024/03/08 04:24:30;;;;;;;12.27;4.40;;;3.60;99.90;;;;;;5147114;23;20151;-93
2024/03/08 04:26:33;;;;;;;20.17;7.37;;;3.60;99.90;;;;;;5171913;22;20155;-92
2024/03/08 04:28:39;;;;;;;11.93;5.93;;;3.50;99.90;;;;;;5172647;22;20679;-94
2024/03/08 04:30:40;;;;;;;14.20;5.37;;;3.60;99.90;;;;;;5171866;23;20189;-93
2024/03/08 04:32:42;;;;;;;18.47;6.47;;;3.60;99.90;;;;;;5124093;23;20215;-93
2024/03/08 04:34:44;;;;;;;15.80;6.07;;;3.50;99.90;;;;;;5147800;23;20159;-92
2024/03/08 04:36:45;;;;;;;13.60;6.10;;;3.60;99.90;;;;;;5173491;23;20175;-93
2024/03/08 04:38:51;;;;;;;17.67;6.13;;;3.60;99.90;;;;;;5172004;23;20151;-94
2024/03/08 04:40:55;;;;;;;17.00;5.90;;;3.50;99.90;;;;;;5172312;22;20151;-92
2024/03/08 04:42:57;;;;;;;14.40;6.37;;;3.50;99.90;;;;;;5145939;23;20158;-93
2024/03/08 04:44:59;;;;;;;17.77;5.30;;;3.70;99.90;;;;;;5146192;23;20151;-93
2024/03/08 04:47:02;;;;;;;16.70;6.07;;;3.60;99.90;;;;;;5171729;23;20604;-93
2024/03/08 04:49:02;;;;;;;12.27;4.83;;;3.60;99.90;;;;;;5146107;23;20214;-94
2024/03/08 04:51:04;;;;;;;8.97;5.57;;;3.50;99.90;;;;;;5146796;23;20174;-93
2024/03/08 04:53:08;;;;;;;11.43;5.83;;;3.50;99.90;;;;;;5146150;23;20155;-93
2024/03/08 04:55:09;;;;;;;11.80;5.43;;;3.50;99.90;;;;;;5121934;23;20161;-94
2024/03/08 04:57:10;;;;;;;14.93;5.90;;;3.60;99.90;;;;;;5147063;23;20673;-93
2024/03/08 04:59:11;;;;;;;14.30;5.87;;;3.60;99.90;;;;;;5146626;23;20186;-93
2024/03/08 05:01:12;;;;;;;13.40;5.60;;;3.50;99.90;;;;;;5146095;23;20148;-93
2024/03/08 05:03:13;;;;;;;14.60;6.67;;;3.50;99.90;;;;;;5149929;23;20162;-93
2024/03/08 05:05:18;;;;;;;19.03;5.67;;;3.60;99.90;;;;;;5152043;23;20147;-93
2024/03/08 05:07:19;;;;;;;18.97;5.33;;;3.50;99.90;;;;;;5151527;23;20167;-94
2024/03/08 05:09:20;;;;;;;20.43;6.07;;;3.60;99.90;;;;;;5149451;23;20187;-93
2024/03/08 05:11:21;;;;;;;10.60;5.50;;;3.70;99.90;;;;;;5175585;23;20147;-93
2024/03/08 05:13:23;;;;;;;17.80;5.77;;;3.80;99.90;;;;;;5197839;22;20154;-95
2024/03/08 05:15:24;;;;;;;17.73;6.73;;;3.70;99.90;;;;;;5176297;23;20174;-93
2024/03/08 05:17:24;;;;;;;14.17;6.27;;;3.60;99.90;;;;;;5151146;23;20210;-96
2024/03/08 05:19:25;;;;;;;13.67;5.57;;;3.60;99.90;;;;;;5173007;23;20194;-92
2024/03/08 05:21:26;;;;;;;14.10;5.60;;;3.60;99.90;;;;;;5202003;22;20146;-96
2024/03/08 05:23:27;;;;;;;12.83;5.27;;;3.70;99.90;;;;;;5150178;23;20163;-93
2024/03/08 05:25:28;;;;;;;19.87;7.90;;;3.60;99.90;;;;;;5148341;23;20148;-93
2024/03/08 05:27:29;;;;;;;22.63;6.60;;;3.50;99.90;;;;;;5150309;23;20554;-94
2024/03/08 05:29:30;;;;;;;15.67;6.37;;;3.60;99.90;;;;;;5148510;23;20298;-93
2024/03/08 05:31:44;;;;;;;12.00;5.90;;;3.50;99.90;;;;;;5175991;23;20228;-96
2024/03/08 05:33:45;;;;;;;15.43;6.23;;;3.40;99.90;;;;;;5175933;23;20142;-92
2024/03/08 05:35:46;;;;;;;11.77;5.20;;;3.30;99.90;;;;;;5149457;23;20155;-93
2024/03/08 05:37:48;;;;;;;16.90;6.77;;;3.20;99.90;;;;;;5199876;22;20173;-96
2024/03/08 05:39:48;;;;;;;15.07;6.20;;;3.20;99.90;;;;;;5149903;23;20214;-93
2024/03/08 05:41:50;;;;;;;14.73;6.50;;;3.20;99.90;;;;;;5147898;23;20155;-94
2024/03/08 05:43:51;;;;;;;14.10;6.10;;;3.30;99.90;;;;;;5148190;23;20158;-93
2024/03/08 05:45:52;;;;;;;15.50;5.93;;;3.20;99.90;;;;;;5176784;22;20151;-96
2024/03/08 05:47:55;;;;;;;16.73;6.33;;;3.30;99.90;;;;;;5150202;23;20135;-93
2024/03/08 05:49:56;;;;;;;18.63;7.37;;;3.30;99.90;;;;;;5174388;23;20171;-93
2024/03/08 05:51:57;;;;;;;17.90;6.90;;;3.30;99.90;;;;;;5149672;23;20190;-92
2024/03/08 05:53:58;;;;;;;14.40;6.00;;;3.30;99.90;;;;;;5149898;23;20151;-96
2024/03/08 05:56:02;;;;;;;12.33;5.77;;;3.30;99.90;;;;;;5174868;23;20155;-95
2024/03/08 05:58:07;;;;;;;18.27;7.20;;;3.30;99.90;;;;;;5151102;23;20154;-96
2024/03/08 06:00:15;;;;;;;13.53;5.17;;;3.40;99.90;;;;;;5150839;23;20194;-96
2024/03/08 06:02:19;;;;;;;14.37;6.60;;;3.40;99.90;;;;;;5176363;23;20199;-93
2024/03/08 06:04:20;;;;;;;15.40;5.90;;;3.30;99.90;;;;;;5155637;23;20151;-92
2024/03/08 06:06:21;;;;;;;13.90;5.73;;;3.30;99.90;;;;;;5185867;22;20209;-94
2024/03/08 06:08:22;;;;;;;14.50;6.37;;;3.30;99.90;;;;;;5162325;22;20146;-92
2024/03/08 06:10:27;;;;;;;19.43;6.10;;;3.20;99.90;;;;;;5178656;22;20150;-93
2024/03/08 06:12:32;;;;;;;18.90;5.90;;;3.50;99.90;;;;;;5152157;23;20162;-93
2024/03/08 06:15:20;;;;;;;15.70;5.80;;;3.50;99.90;;;;;;5206267;22;20138;-92
2024/03/08 06:17:25;;;;;;;15.40;5.17;;;3.40;99.90;;;;;;5177769;22;20157;-94
2024/03/08 06:19:28;;;;;;;12.43;6.27;;;3.40;99.90;;;;;;5153890;23;20195;-94
2024/03/08 06:21:47;;;;;;;13.00;6.00;;;3.30;99.90;;;;;;5186180;22;20199;-92
2024/03/08 06:23:57;;;;;;;16.10;6.67;;;3.40;99.90;;;;;;5205927;22;20150;-93
2024/03/08 06:25:58;;;;;;;16.17;6.03;;;3.60;99.90;;;;;;5181348;22;20131;-94
2024/03/08 06:28:06;;;;;;;12.50;5.17;;;3.40;99.90;;;;;;5180696;23;20154;-92
2024/03/08 06:30:16;;;;;;;14.93;6.87;;;3.30;99.90;;;;;;5181959;22;20657;-91
2024/03/08 06:32:22;;;;;;;19.10;5.50;;;3.40;99.90;;;;;;5180307;22;20159;-93
2024/03/08 06:34:51;;;;;;;14.13;5.83;;;3.40;99.90;;;;;;5206387;22;20290;-93
2024/03/08 06:37:00;;;;;;;12.80;5.73;;;3.50;99.90;;;;;;5183247;22;20142;-92
2024/03/08 06:39:13;;;;;;;12.90;5.77;;;3.50;99.90;;;;;;5181325;22;20205;-94
2024/03/08 06:41:37;;;;;;;11.67;4.83;;;3.60;99.90;;;;;;5178813;23;20166;-95
2024/03/08 06:43:44;;;;;;;13.77;5.27;;;3.60;99.90;;;;;;5181359;22;20151;-92
2024/03/08 06:46:03;;;;;;;17.37;6.73;;;3.50;99.90;;;;;;5182052;22;20220;-94
2024/03/08 06:48:24;;;;;;;16.77;7.87;;;3.70;99.90;;;;;;5182412;22;20157;-92
2024/03/08 06:50:24;;;;;;;12.27;5.80;;;3.90;99.90;;;;;;5182046;22;20189;-92
2024/03/08 06:52:53;;;;;;;14.73;5.93;;;3.90;99.90;;;;;;5207960;22;20135;-92
2024/03/08 06:55:07;;;;;;;17.30;6.37;;;4.20;99.90;;;;;;5208324;22;20171;-92
2024/03/08 06:57:10;;;;;;;13.17;6.10;;;4.40;99.90;;;;;;5179340;22;20277;-92
2024/03/08 06:59:11;;;;;;;16.03;7.40;;;4.60;99.90;;;;;;5156560;23;20175;-93
2024/03/08 07:01:22;;;;;;;13.80;5.80;;;4.70;99.90;;;;;;5203079;22;20627;-95
2024/03/08 07:03:29;;;;;;;15.57;7.00;;;4.80;99.90;;;;;;5156923;23;20140;-93
2024/03/08 07:05:32;;;;;;;18.30;6.60;;;4.90;99.90;;;;;;5157839;23;20141;-93
2024/03/08 07:08:14;;;;;;;17.47;7.10;;;5.20;99.90;;;;;;5180211;22;20159;-93
2024/03/08 07:10:16;;;;;;;15.10;6.30;;;5.30;99.90;;;;;;5156548;23;20189;-93
2024/03/08 07:12:17;;;;;;;5.83;3.30;;;5.20;99.90;;;;;;5182475;22;20135;-93
2024/03/08 07:14:25;;;;;;;11.00;4.83;;;5.40;99.90;;;;;;5155646;23;20136;-93
2024/03/08 07:16:31;;;;;;;20.13;7.40;;;5.40;99.90;;;;;;5183874;22;20151;-93
2024/03/08 07:18:34;;;;;;;15.30;6.60;;;5.60;99.90;;;;;;5183717;22;20162;-92
2024/03/08 07:20:43;;;;;;;13.03;6.37;;;5.50;99.90;;;;;;5184044;22;20187;-94
2024/03/08 07:22:55;;;;;;;11.80;5.67;;;5.60;99.90;;;;;;5211036;22;20150;-92
2024/03/08 07:25:29;;;;;;;10.30;3.73;;;5.60;99.90;;;;;;5181675;22;20601;-95
2024/03/08 07:27:34;;;;;;;14.60;6.23;;;5.80;99.90;;;;;;5183127;22;20197;-93
2024/03/08 07:29:35;;;;;;;16.27;5.40;;;5.90;99.90;;;;;;5183374;22;20159;-92
2024/03/08 07:32:19;;;;;;;11.07;5.60;;;5.90;99.90;;;;;;5181072;22;20143;-93
2024/03/08 07:34:31;;;;;;;16.50;6.23;;;6.30;99.90;;;;;;5207358;22;20154;-94
2024/03/08 07:36:37;;;;;;;13.67;6.30;;;6.30;99.90;;;;;;5182500;22;20183;-92
2024/03/08 07:38:57;;;;;;;14.63;5.77;;;6.40;99.90;;;;;;5156402;22;20152;-94
2024/03/08 07:41:08;;;;;;;13.47;5.40;;;6.30;99.90;;;;;;5177541;22;20201;-92
2024/03/08 07:43:13;;;;;;;14.97;6.27;;;6.30;99.90;;;;;;5181582;22;20151;-95
2024/03/08 07:45:17;;;;;;;14.97;5.90;;;6.10;99.90;;;;;;5179654;22;20151;-92
2024/03/08 07:47:37;;;;;;;20.50;7.20;;;6.30;99.90;;;;;;5160369;23;20132;-95
2024/03/08 07:49:51;;;;;;;10.37;4.43;;;6.50;99.90;;;;;;5205892;22;20196;-92
2024/03/08 07:51:55;;;;;;;9.47;4.73;;;6.40;99.90;;;;;;5179293;22;20166;-93
2024/03/08 07:54:00;;;;;;;14.63;7.20;;;6.30;99.90;;;;;;5205806;22;20146;-96
2024/03/08 07:56:05;;;;;;;11.20;4.67;;;6.30;99.90;;;;;;5157308;23;20158;-93
2024/03/08 07:58:10;;;;;;;13.20;5.80;;;6.50;99.90;;;;;;5208005;22;20154;-94
2024/03/08 08:00:17;;;;;;;8.97;4.70;;;6.80;99.90;;;;;;5177808;22;20558;-94
2024/03/08 08:02:26;;;;;;;16.73;7.00;;;7.00;99.90;;;;;;5182785;22;20161;-93
2024/03/08 08:05:10;;;;;;;12.17;5.77;;;7.10;99.90;;;;;;5181996;22;20151;-92
2024/03/08 08:07:23;;;;;;;8.93;4.80;;;7.30;99.90;;;;;;5187159;22;20163;-96
2024/03/08 08:09:34;;;;;;;10.40;4.73;;;7.10;99.90;;;;;;5186159;22;20151;-93
2024/03/08 08:11:43;;;;;;;12.53;5.80;;;6.90;99.90;;;;;;5186486;22;20202;-93
2024/03/08 08:13:51;;;;;;;8.73;4.63;;;7.10;99.90;;;;;;5180730;22;20208;-93
2024/03/08 08:15:59;;;;;;;17.43;5.60;;;6.90;99.90;;;;;;5178398;23;20135;-93
2024/03/08 08:18:09;;;;;;;8.23;4.43;;;7.30;99.90;;;;;;5181761;22;20230;-93
2024/03/08 08:20:13;;;;;;;14.70;4.67;;;7.50;99.90;;;;;;5180746;22;20198;-96
2024/03/08 08:22:25;;;;;;;11.47;5.27;;;7.30;99.90;;;;;;5183839;22;20120;-94
2024/03/08 08:25:13;;;;;;;9.43;4.90;;;7.40;99.90;;;;;;5179316;22;20159;-93
2024/03/08 08:27:39;;;;;;;6.93;3.57;;;7.60;99.90;;;;;;5202503;22;20140;-92
2024/03/08 08:29:50;;;;;;;9.23;3.77;;;7.70;99.90;;;;;;5180138;22;20237;-93
2024/03/08 08:31:54;;;;;;;23.53;6.47;;;7.60;99.90;;;;;;5153912;22;20168;-94
2024/03/08 08:34:11;;;;;;;13.30;6.30;;;7.70;99.90;;;;;;5181070;22;20139;-93
2024/03/08 08:36:29;;;;;;;15.97;6.40;;;7.70;99.90;;;;;;5156012;23;20183;-95
2024/03/08 08:38:35;;;;;;;13.10;5.43;;;7.80;99.90;;;;;;5182075;22;20285;-94
2024/03/08 08:40:42;;;;;;;10.43;4.38;;;8.20;99.90;;;;;;5206284;22;20174;-94
2024/03/08 08:42:45;;;;;;;10.85;5.03;;;8.40;99.90;;;;;;5181143;22;20151;-95
2024/03/08 08:44:57;;;;;;;12.18;5.45;;;8.60;99.90;;;;;;5184597;23;20155;-95
2024/03/08 08:47:08;;;;;;;13.15;5.53;;;8.50;99.90;;;;;;5183515;22;20158;-94
2024/03/08 08:49:14;;;;;;;9.45;4.85;;;8.30;99.90;;;;;;5178685;22;20266;-94
2024/03/08 08:51:27;;;;;;;13.68;5.68;;;8.10;99.90;;;;;;5179338;22;20198;-94
2024/03/08 08:53:31;;;;;;;16.73;5.22;;;8.30;99.90;;;;;;5153850;22;20591;-93
2024/03/08 08:55:49;;;;;;;11.60;4.78;;;8.40;99.90;;;;;;5176834;23;20236;-93
2024/03/08 08:57:58;;;;;;;7.38;4.30;;;8.10;99.90;;;;;;5182624;22;20162;-93
2024/03/08 09:00:16;;;;;;;11.43;5.80;;;8.30;99.90;;;;;;5156056;23;20183;-95
2024/03/08 09:02:44;;;;;;;11.48;5.65;;;8.60;99.90;;;;;;5184277;22;20131;-93
2024/03/08 09:05:17;;;;;;;9.32;4.13;;;8.50;99.90;;;;;;5184882;22;20143;-95
2024/03/08 09:07:21;;;;;;;13.75;5.55;;;8.60;99.90;;;;;;5175730;22;20143;-93
2024/03/08 09:09:42;;;;;;;12.95;4.97;;;8.80;99.90;;;;;;5206481;22;20170;-92
2024/03/08 09:11:49;;;;;;;15.25;5.15;;;8.80;99.90;;;;;;5179607;22;20159;-92
2024/03/08 09:13:50;;;;;;;11.52;4.93;;;8.80;99.90;;;;;;5179400;22;20705;-93
2024/03/08 09:15:56;;;;;;;19.67;5.45;;;8.90;99.90;;;;;;5179694;22;20150;-93
2024/03/08 09:17:59;;;;;;;14.00;5.35;;;8.70;99.90;;;;;;5181530;23;20178;-93
2024/03/08 09:20:10;;;;;;;12.05;5.10;;;8.60;99.90;;;;;;5176595;23;20193;-93
2024/03/08 09:22:35;;;;;;;13.77;6.13;;;8.90;99.90;;;;;;5185274;22;20143;-93
2024/03/08 09:24:45;;;;;;;12.38;5.80;;;9.30;99.90;;;;;;5180329;22;20146;-93
2024/03/08 09:26:51;;;;;;;8.90;3.42;;;9.20;99.90;;;;;;5157111;22;20156;-93
2024/03/08 09:29:06;;;;;;;8.38;3.75;;;8.90;99.90;;;;;;5208205;22;20182;-96
2024/03/08 09:31:18;;;;;;;11.50;4.32;;;8.60;99.90;;;;;;5177598;23;20233;-92
2024/03/08 09:33:22;;;;;;;11.55;5.32;;;8.40;99.90;;;;;;5203437;22;20156;-92
2024/03/08 09:35:26;;;;;;;12.40;4.95;;;8.40;99.90;;;;;;5175675;23;20139;-94
2024/03/08 09:37:40;;;;;;;9.02;4.15;;;8.70;99.90;;;;;;5179486;22;20143;-94
2024/03/08 09:40:15;;;;;;;11.90;4.75;;;8.90;99.90;;;;;;5179602;22;20204;-95
2024/03/08 09:42:21;;;;;;;13.07;5.00;;;9.00;99.90;;;;;;5178301;22;20218;-93
2024/03/08 09:44:49;;;;;;;10.95;4.95;;;9.10;99.90;;;;;;5180571;22;20233;-93
2024/03/08 09:46:58;;;;;;;11.85;5.80;;;9.30;99.90;;;;;;5175629;22;20235;-93
2024/03/08 09:49:14;;;;;;;10.90;4.68;;;9.30;99.90;;;;;;5180369;22;20170;-95
2024/03/08 09:51:40;;;;;;;13.75;5.43;;;9.30;99.90;;;;;;5179180;22;20178;-96
2024/03/08 09:54:04;;;;;;;10.68;4.55;;;9.30;99.90;;;;;;5152461;23;20575;-93
2024/03/08 10:00:45;;;;;;;11.85;5.32;;;9.20;99.90;;;;;;5207175;22;20193;-95
2024/03/08 10:03:11;;;;;;;10.43;3.42;;;9.30;99.90;;;;;;5188416;22;20157;-93
2024/03/08 10:05:16;;;;;;;10.85;4.75;;;9.00;99.90;;;;;;5178874;22;20150;-96
2024/03/08 10:07:40;;;;;;;11.02;5.03;;;8.70;99.90;;;;;;5187648;22;20151;-92
2024/03/08 10:09:50;;;;;;;8.85;4.45;;;8.60;99.90;;;;;;5182493;23;20170;-93
2024/03/08 10:11:55;;;;;;;8.90;4.27;;;8.30;99.90;;;;;;5176384;23;20178;-92
2024/03/08 10:14:03;;;;;;;13.40;5.45;;;8.40;99.90;;;;;;5175675;22;20174;-93
2024/03/08 10:16:06;;;;;;;8.52;3.22;;;8.50;99.90;;;;;;5178765;22;20185;-93
2024/03/08 10:18:14;;;;;;;10.77;4.67;;;8.50;99.90;;;;;;5186345;22;20154;-93
2024/03/08 10:20:26;;;;;;;11.65;4.57;;;8.50;99.90;;;;;;5188930;22;20220;-92
2024/03/08 10:22:33;;;;;;;9.27;4.13;;;8.60;99.90;;;;;;5212587;22;20139;-93
2024/03/08 10:24:34;;;;;;;12.77;4.80;;;8.50;99.90;;;;;;5182380;22;20233;-93
2024/03/08 10:26:54;;;;;;;6.43;2.83;;;8.40;99.90;;;;;;5150677;23;20167;-92
2024/03/08 10:28:55;;;;;;;9.85;4.25;;;8.50;99.90;;;;;;5150907;23;20179;-94
2024/03/08 10:31:19;;;;;;;7.87;3.40;;;8.80;99.90;;;;;;5188061;22;20155;-93
2024/03/08 10:33:20;;;;;;;11.93;4.40;;;8.70;99.90;;;;;;5154089;23;20135;-93
2024/03/08 10:35:22;;;;;;;9.65;4.90;;;8.80;99.90;;;;;;5158069;23;20151;-92
2024/03/08 10:37:46;;;;;;;11.68;4.45;;;9.00;99.90;;;;;;5155137;23;20678;-93
2024/03/08 10:40:20;;;;;;;8.82;3.88;;;9.10;99.90;;;;;;5179849;22;20199;-93
2024/03/08 10:42:34;;;;;;;9.57;4.75;;;9.20;99.90;;;;;;5183748;22;20154;-94
2024/03/08 10:44:40;;;;;;;9.10;3.42;;;9.10;99.90;;;;;;5181652;23;20143;-93
2024/03/08 10:47:16;;;;;;;19.33;4.82;;;8.90;99.90;;;;;;5180729;22;20230;-92
2024/03/08 10:49:34;;;;;;;12.98;5.00;;;8.70;99.90;;;;;;5182768;22;20265;-93
2024/03/08 10:52:08;;;;;;;12.57;5.47;;;9.00;99.90;;;;;;5202094;22;20154;-95
2024/03/08 10:54:28;;;;;;;15.23;4.85;;;9.10;99.90;;;;;;5181954;22;20165;-96
2024/03/08 10:56:30;;;;;;;8.43;3.80;;;9.20;99.90;;;;;;5178050;22;20153;-92
2024/03/08 10:58:39;;;;;;;8.60;3.95;;;9.50;99.90;;;;;;5181006;22;20146;-92
2024/03/08 11:00:41;;;;;;;11.25;4.63;;;9.30;99.90;;;;;;5179260;23;20190;-94
2024/03/08 11:02:46;;;;;;;13.95;4.68;;;9.20;99.90;;;;;;5181524;22;20147;-95